sensor_id;sensor_type;location;lat;lon;timestamp;P1;durP1;ratioP1;P2;durP2;ratioP2
16977;SDS011;8605;52.548;4.918;2023-04-03T00:01:02;5.63;;;2.13;;
16977;SDS011;8605;52.548;4.918;2023-04-03T00:06:06;4.80;;;2.28;;
16977;SDS011;8605;52.548;4.918;2023-04-03T00:11:10;5.23;;;2.13;;
16977;SDS011;8605;52.548;4.918;2023-04-03T00:16:13;6.78;;;2.20;;
16977;SDS011;8605;52.548;4.918;2023-04-03T00:21:17;5.10;;;2.40;;
16977;SDS011;8605;52.548;4.918;2023-04-03T00:26:20;6.57;;;2.50;;
16977;SDS011;8605;52.548;4.918;2023-04-03T00:31:23;6.28;;;2.00;;
16977;SDS011;8605;52.548;4.918;2023-04-03T00:36:28;5.88;;;2.10;;
16977;SDS011;8605;52.548;4.918;2023-04-03T00:41:32;5.40;;;2.47;;
16977;SDS011;8605;52.548;4.918;2023-04-03T00:46:35;7.30;;;2.85;;
16977;SDS011;8605;52.548;4.918;2023-04-03T00:51:39;5.22;;;2.30;;
16977;SDS011;8605;52.548;4.918;2023-04-03T00:56:42;6.27;;;2.57;;
16977;SDS011;8605;52.548;4.918;2023-04-03T01:01:45;4.72;;;2.45;;
16977;SDS011;8605;52.548;4.918;2023-04-03T01:06:50;8.88;;;2.70;;
16977;SDS011;8605;52.548;4.918;2023-04-03T01:11:54;10.32;;;2.95;;
16977;SDS011;8605;52.548;4.918;2023-04-03T01:16:57;7.25;;;3.20;;
16977;SDS011;8605;52.548;4.918;2023-04-03T01:22:03;8.25;;;3.83;;
16977;SDS011;8605;52.548;4.918;2023-04-03T01:27:14;6.63;;;3.10;;
16977;SDS011;8605;52.548;4.918;2023-04-03T01:32:18;9.93;;;3.65;;
16977;SDS011;8605;52.548;4.918;2023-04-03T01:37:21;12.20;;;4.13;;
16977;SDS011;8605;52.548;4.918;2023-04-03T01:42:24;10.98;;;4.50;;
16977;SDS011;8605;52.548;4.918;2023-04-03T01:47:29;8.07;;;3.63;;
16977;SDS011;8605;52.548;4.918;2023-04-03T01:52:32;11.45;;;4.32;;
16977;SDS011;8605;52.548;4.918;2023-04-03T01:57:35;13.35;;;4.40;;
16977;SDS011;8605;52.548;4.918;2023-04-03T02:02:39;13.07;;;4.20;;
16977;SDS011;8605;52.548;4.918;2023-04-03T02:07:42;10.60;;;4.45;;
16977;SDS011;8605;52.548;4.918;2023-04-03T02:12:45;10.18;;;4.22;;
16977;SDS011;8605;52.548;4.918;2023-04-03T02:17:50;10.40;;;4.37;;
16977;SDS011;8605;52.548;4.918;2023-04-03T02:22:54;9.80;;;4.05;;
16977;SDS011;8605;52.548;4.918;2023-04-03T02:27:59;12.52;;;4.10;;
16977;SDS011;8605;52.548;4.918;2023-04-03T02:33:03;10.38;;;3.95;;
16977;SDS011;8605;52.548;4.918;2023-04-03T02:38:06;9.93;;;4.20;;
16977;SDS011;8605;52.548;4.918;2023-04-03T02:43:09;10.70;;;4.60;;
16977;SDS011;8605;52.548;4.918;2023-04-03T02:48:14;7.72;;;3.60;;
16977;SDS011;8605;52.548;4.918;2023-04-03T02:53:18;10.52;;;4.03;;
16977;SDS011;8605;52.548;4.918;2023-04-03T02:58:23;7.60;;;3.10;;
16977;SDS011;8605;52.548;4.918;2023-04-03T03:03:30;8.35;;;3.55;;
16977;SDS011;8605;52.548;4.918;2023-04-03T03:08:33;9.82;;;3.70;;
16977;SDS011;8605;52.548;4.918;2023-04-03T03:13:36;5.25;;;3.10;;
16977;SDS011;8605;52.548;4.918;2023-04-03T03:18:40;13.40;;;4.30;;
16977;SDS011;8605;52.548;4.918;2023-04-03T03:23:43;7.85;;;3.63;;
16977;SDS011;8605;52.548;4.918;2023-04-03T03:28:46;11.48;;;3.85;;
16977;SDS011;8605;52.548;4.918;2023-04-03T03:33:50;7.83;;;3.57;;
16977;SDS011;8605;52.548;4.918;2023-04-03T03:38:53;10.77;;;3.85;;
16977;SDS011;8605;52.548;4.918;2023-04-03T03:43:57;10.38;;;3.90;;
16977;SDS011;8605;52.548;4.918;2023-04-03T03:49:04;13.30;;;4.20;;
16977;SDS011;8605;52.548;4.918;2023-04-03T03:54:07;10.47;;;3.80;;
16977;SDS011;8605;52.548;4.918;2023-04-03T03:59:11;7.78;;;3.70;;
16977;SDS011;8605;52.548;4.918;2023-04-03T04:04:16;16.53;;;4.80;;
16977;SDS011;8605;52.548;4.918;2023-04-03T04:09:19;9.32;;;4.30;;
16977;SDS011;8605;52.548;4.918;2023-04-03T04:14:22;12.75;;;4.60;;
16977;SDS011;8605;52.548;4.918;2023-04-03T04:19:27;11.60;;;4.37;;
16977;SDS011;8605;52.548;4.918;2023-04-03T04:24:30;10.73;;;4.93;;
16977;SDS011;8605;52.548;4.918;2023-04-03T04:29:36;14.67;;;5.03;;
16977;SDS011;8605;52.548;4.918;2023-04-03T04:34:42;12.82;;;5.03;;
16977;SDS011;8605;52.548;4.918;2023-04-03T04:39:46;11.13;;;4.90;;
16977;SDS011;8605;52.548;4.918;2023-04-03T04:44:49;10.90;;;4.93;;
16977;SDS011;8605;52.548;4.918;2023-04-03T04:49:54;15.75;;;5.72;;
16977;SDS011;8605;52.548;4.918;2023-04-03T04:54:57;12.80;;;5.18;;
16977;SDS011;8605;52.548;4.918;2023-04-03T05:00:00;10.50;;;5.13;;
16977;SDS011;8605;52.548;4.918;2023-04-03T05:05:06;13.27;;;4.78;;
16977;SDS011;8605;52.548;4.918;2023-04-03T05:10:11;12.85;;;5.70;;
16977;SDS011;8605;52.548;4.918;2023-04-03T05:15:15;13.93;;;5.33;;
16977;SDS011;8605;52.548;4.918;2023-04-03T05:20:20;12.20;;;6.03;;
16977;SDS011;8605;52.548;4.918;2023-04-03T05:25:24;16.70;;;7.07;;
16977;SDS011;8605;52.548;4.918;2023-04-03T05:30:28;16.17;;;7.20;;
16977;SDS011;8605;52.548;4.918;2023-04-03T05:35:33;18.88;;;7.35;;
16977;SDS011;8605;52.548;4.918;2023-04-03T05:40:38;19.73;;;7.50;;
16977;SDS011;8605;52.548;4.918;2023-04-03T05:45:42;18.00;;;7.28;;
16977;SDS011;8605;52.548;4.918;2023-04-03T05:50:49;16.88;;;7.32;;
16977;SDS011;8605;52.548;4.918;2023-04-03T05:55:57;14.43;;;6.50;;
16977;SDS011;8605;52.548;4.918;2023-04-03T06:01:02;17.00;;;6.70;;
16977;SDS011;8605;52.548;4.918;2023-04-03T06:06:06;15.73;;;6.00;;
16977;SDS011;8605;52.548;4.918;2023-04-03T06:11:10;15.13;;;6.60;;
16977;SDS011;8605;52.548;4.918;2023-04-03T06:16:13;12.65;;;5.80;;
16977;SDS011;8605;52.548;4.918;2023-04-03T06:21:18;22.55;;;7.28;;
16977;SDS011;8605;52.548;4.918;2023-04-03T06:26:21;11.23;;;6.25;;
16977;SDS011;8605;52.548;4.918;2023-04-03T06:31:23;13.50;;;6.25;;
16977;SDS011;8605;52.548;4.918;2023-04-03T06:36:28;17.73;;;6.68;;
16977;SDS011;8605;52.548;4.918;2023-04-03T06:41:31;15.77;;;6.47;;
16977;SDS011;8605;52.548;4.918;2023-04-03T06:46:36;14.80;;;6.22;;
16977;SDS011;8605;52.548;4.918;2023-04-03T06:51:41;13.75;;;4.85;;
16977;SDS011;8605;52.548;4.918;2023-04-03T06:56:44;14.00;;;5.10;;
16977;SDS011;8605;52.548;4.918;2023-04-03T07:01:47;12.40;;;5.15;;
16977;SDS011;8605;52.548;4.918;2023-04-03T07:06:51;9.53;;;4.80;;
16977;SDS011;8605;52.548;4.918;2023-04-03T07:11:54;13.38;;;4.85;;
16977;SDS011;8605;52.548;4.918;2023-04-03T07:16:57;10.97;;;4.37;;
16977;SDS011;8605;52.548;4.918;2023-04-03T07:22:01;11.43;;;5.20;;
16977;SDS011;8605;52.548;4.918;2023-04-03T07:27:04;10.30;;;4.00;;
16977;SDS011;8605;52.548;4.918;2023-04-03T07:32:09;13.13;;;4.53;;
16977;SDS011;8605;52.548;4.918;2023-04-03T07:37:14;10.70;;;4.23;;
16977;SDS011;8605;52.548;4.918;2023-04-03T07:42:17;11.60;;;4.40;;
16977;SDS011;8605;52.548;4.918;2023-04-03T07:47:20;12.68;;;4.80;;
16977;SDS011;8605;52.548;4.918;2023-04-03T07:52:24;10.70;;;4.60;;
16977;SDS011;8605;52.548;4.918;2023-04-03T07:57:27;11.73;;;4.63;;
16977;SDS011;8605;52.548;4.918;2023-04-03T08:02:31;8.05;;;4.13;;
16977;SDS011;8605;52.548;4.918;2023-04-03T08:07:35;7.45;;;4.03;;
16977;SDS011;8605;52.548;4.918;2023-04-03T08:12:38;10.73;;;4.55;;
16977;SDS011;8605;52.548;4.918;2023-04-03T08:17:41;8.15;;;3.33;;
16977;SDS011;8605;52.548;4.918;2023-04-03T08:22:45;6.63;;;3.20;;
16977;SDS011;8605;52.548;4.918;2023-04-03T08:27:48;18.83;;;4.50;;
16977;SDS011;8605;52.548;4.918;2023-04-03T08:32:52;11.50;;;4.03;;
16977;SDS011;8605;52.548;4.918;2023-04-03T08:37:56;10.75;;;4.45;;
16977;SDS011;8605;52.548;4.918;2023-04-03T08:43:02;9.90;;;3.88;;
16977;SDS011;8605;52.548;4.918;2023-04-03T08:48:11;10.77;;;4.13;;
16977;SDS011;8605;52.548;4.918;2023-04-03T08:53:19;4.97;;;2.92;;
16977;SDS011;8605;52.548;4.918;2023-04-03T08:58:24;7.53;;;4.13;;
16977;SDS011;8605;52.548;4.918;2023-04-03T09:03:29;7.38;;;3.40;;
16977;SDS011;8605;52.548;4.918;2023-04-03T09:08:35;9.60;;;3.30;;
16977;SDS011;8605;52.548;4.918;2023-04-03T09:13:43;7.15;;;2.85;;
16977;SDS011;8605;52.548;4.918;2023-04-03T09:18:51;5.10;;;2.70;;
16977;SDS011;8605;52.548;4.918;2023-04-03T09:23:59;7.28;;;2.70;;
16977;SDS011;8605;52.548;4.918;2023-04-03T09:29:05;6.07;;;2.43;;
16977;SDS011;8605;52.548;4.918;2023-04-03T09:34:10;4.40;;;2.50;;
16977;SDS011;8605;52.548;4.918;2023-04-03T09:39:20;4.53;;;2.47;;
16977;SDS011;8605;52.548;4.918;2023-04-03T09:44:24;5.30;;;2.83;;
16977;SDS011;8605;52.548;4.918;2023-04-03T09:49:28;8.52;;;2.78;;
16977;SDS011;8605;52.548;4.918;2023-04-03T09:54:33;5.60;;;2.53;;
16977;SDS011;8605;52.548;4.918;2023-04-03T09:59:43;8.23;;;2.85;;
16977;SDS011;8605;52.548;4.918;2023-04-03T10:04:48;6.53;;;2.60;;
16977;SDS011;8605;52.548;4.918;2023-04-03T10:10:17;4.20;;;2.53;;
16977;SDS011;8605;52.548;4.918;2023-04-03T10:15:21;7.93;;;2.88;;
16977;SDS011;8605;52.548;4.918;2023-04-03T10:20:36;5.15;;;2.38;;
16977;SDS011;8605;52.548;4.918;2023-04-03T10:25:43;6.35;;;2.60;;
16977;SDS011;8605;52.548;4.918;2023-04-03T10:30:54;6.90;;;2.38;;
16977;SDS011;8605;52.548;4.918;2023-04-03T10:36:03;5.20;;;2.40;;
16977;SDS011;8605;52.548;4.918;2023-04-03T10:41:16;6.38;;;1.92;;
16977;SDS011;8605;52.548;4.918;2023-04-03T10:46:23;3.25;;;1.88;;
16977;SDS011;8605;52.548;4.918;2023-04-03T10:51:33;4.43;;;1.60;;
16977;SDS011;8605;52.548;4.918;2023-04-03T10:56:42;3.17;;;1.20;;
16977;SDS011;8605;52.548;4.918;2023-04-03T11:01:49;4.05;;;1.25;;
16977;SDS011;8605;52.548;4.918;2023-04-03T11:06:56;2.20;;;1.10;;
16977;SDS011;8605;52.548;4.918;2023-04-03T11:12:03;2.97;;;1.13;;
16977;SDS011;8605;52.548;4.918;2023-04-03T11:22:32;1.53;;;1.00;;
16977;SDS011;8605;52.548;4.918;2023-04-03T11:27:40;1.63;;;0.90;;
16977;SDS011;8605;52.548;4.918;2023-04-03T11:32:49;1.47;;;1.00;;
16977;SDS011;8605;52.548;4.918;2023-04-03T11:38:02;2.58;;;1.13;;
16977;SDS011;8605;52.548;4.918;2023-04-03T11:43:17;5.53;;;1.08;;
16977;SDS011;8605;52.548;4.918;2023-04-03T11:48:44;2.77;;;1.00;;
16977;SDS011;8605;52.548;4.918;2023-04-03T11:53:49;3.25;;;1.15;;
16977;SDS011;8605;52.548;4.918;2023-04-03T12:04:28;2.90;;;1.10;;
16977;SDS011;8605;52.548;4.918;2023-04-03T12:26:04;1.65;;;1.00;;
16977;SDS011;8605;52.548;4.918;2023-04-03T12:31:15;1.80;;;1.00;;
16977;SDS011;8605;52.548;4.918;2023-04-03T12:36:18;2.50;;;1.00;;
16977;SDS011;8605;52.548;4.918;2023-04-03T12:41:28;3.17;;;1.30;;
16977;SDS011;8605;52.548;4.918;2023-04-03T12:46:42;3.07;;;1.20;;
16977;SDS011;8605;52.548;4.918;2023-04-03T12:51:46;2.83;;;1.15;;
16977;SDS011;8605;52.548;4.918;2023-04-03T12:56:49;2.17;;;1.00;;
16977;SDS011;8605;52.548;4.918;2023-04-03T13:01:54;3.42;;;1.10;;
16977;SDS011;8605;52.548;4.918;2023-04-03T13:06:58;1.25;;;0.90;;
16977;SDS011;8605;52.548;4.918;2023-04-03T13:12:02;2.33;;;1.00;;
16977;SDS011;8605;52.548;4.918;2023-04-03T13:17:10;1.55;;;1.30;;
16977;SDS011;8605;52.548;4.918;2023-04-03T13:22:21;2.22;;;1.08;;
16977;SDS011;8605;52.548;4.918;2023-04-03T13:27:29;3.23;;;0.93;;
16977;SDS011;8605;52.548;4.918;2023-04-03T13:32:34;3.17;;;0.73;;
16977;SDS011;8605;52.548;4.918;2023-04-03T13:37:37;2.30;;;0.90;;
16977;SDS011;8605;52.548;4.918;2023-04-03T13:42:40;1.70;;;1.20;;
16977;SDS011;8605;52.548;4.918;2023-04-03T13:47:45;1.60;;;0.80;;
16977;SDS011;8605;52.548;4.918;2023-04-03T13:52:52;4.57;;;1.17;;
16977;SDS011;8605;52.548;4.918;2023-04-03T13:57:57;3.85;;;1.00;;
16977;SDS011;8605;52.548;4.918;2023-04-03T14:03:02;3.93;;;1.50;;
16977;SDS011;8605;52.548;4.918;2023-04-03T14:08:10;8.40;;;1.63;;
16977;SDS011;8605;52.548;4.918;2023-04-03T14:13:13;1.60;;;0.80;;
16977;SDS011;8605;52.548;4.918;2023-04-03T14:18:19;2.70;;;1.02;;
16977;SDS011;8605;52.548;4.918;2023-04-03T14:23:22;2.88;;;0.88;;
16977;SDS011;8605;52.548;4.918;2023-04-03T14:28:25;2.15;;;1.08;;
16977;SDS011;8605;52.548;4.918;2023-04-03T14:33:29;3.30;;;0.98;;
16977;SDS011;8605;52.548;4.918;2023-04-03T14:38:36;1.50;;;0.97;;
16977;SDS011;8605;52.548;4.918;2023-04-03T14:43:38;3.58;;;1.42;;
16977;SDS011;8605;52.548;4.918;2023-04-03T14:48:43;3.27;;;1.33;;
16977;SDS011;8605;52.548;4.918;2023-04-03T14:54:11;1.85;;;0.95;;
16977;SDS011;8605;52.548;4.918;2023-04-03T14:59:15;3.30;;;1.15;;
16977;SDS011;8605;52.548;4.918;2023-04-03T15:04:20;3.70;;;1.30;;
16977;SDS011;8605;52.548;4.918;2023-04-03T15:09:25;2.90;;;1.40;;
16977;SDS011;8605;52.548;4.918;2023-04-03T15:14:29;2.65;;;1.55;;
16977;SDS011;8605;52.548;4.918;2023-04-03T15:19:49;2.80;;;1.70;;
16977;SDS011;8605;52.548;4.918;2023-04-03T15:24:52;3.70;;;1.58;;
16977;SDS011;8605;52.548;4.918;2023-04-03T15:29:55;2.45;;;1.20;;
16977;SDS011;8605;52.548;4.918;2023-04-03T15:34:59;2.23;;;1.40;;
16977;SDS011;8605;52.548;4.918;2023-04-03T15:40:02;3.83;;;1.50;;
16977;SDS011;8605;52.548;4.918;2023-04-03T15:45:06;2.57;;;1.23;;
16977;SDS011;8605;52.548;4.918;2023-04-03T15:50:12;1.75;;;1.30;;
16977;SDS011;8605;52.548;4.918;2023-04-03T15:55:15;3.30;;;1.27;;
16977;SDS011;8605;52.548;4.918;2023-04-03T16:00:18;2.20;;;1.33;;
16977;SDS011;8605;52.548;4.918;2023-04-03T16:05:23;2.10;;;1.27;;
16977;SDS011;8605;52.548;4.918;2023-04-03T16:10:27;5.90;;;1.60;;
16977;SDS011;8605;52.548;4.918;2023-04-03T16:15:30;2.07;;;1.53;;
16977;SDS011;8605;52.548;4.918;2023-04-03T16:20:35;5.47;;;1.88;;
16977;SDS011;8605;52.548;4.918;2023-04-03T16:25:38;7.07;;;1.80;;
16977;SDS011;8605;52.548;4.918;2023-04-03T16:30:41;3.27;;;1.63;;
16977;SDS011;8605;52.548;4.918;2023-04-03T16:35:46;3.60;;;1.70;;
16977;SDS011;8605;52.548;4.918;2023-04-03T16:40:49;3.80;;;1.95;;
16977;SDS011;8605;52.548;4.918;2023-04-03T16:45:53;4.65;;;1.63;;
16977;SDS011;8605;52.548;4.918;2023-04-03T16:50:57;3.55;;;1.67;;
16977;SDS011;8605;52.548;4.918;2023-04-03T16:56:01;3.75;;;2.25;;
16977;SDS011;8605;52.548;4.918;2023-04-03T17:01:11;3.97;;;1.90;;
16977;SDS011;8605;52.548;4.918;2023-04-03T17:06:17;3.50;;;1.52;;
16977;SDS011;8605;52.548;4.918;2023-04-03T17:11:21;4.25;;;2.10;;
16977;SDS011;8605;52.548;4.918;2023-04-03T17:16:24;2.78;;;1.75;;
16977;SDS011;8605;52.548;4.918;2023-04-03T17:21:29;4.10;;;2.10;;
16977;SDS011;8605;52.548;4.918;2023-04-03T17:26:33;3.58;;;1.92;;
16977;SDS011;8605;52.548;4.918;2023-04-03T17:31:37;7.35;;;2.50;;
16977;SDS011;8605;52.548;4.918;2023-04-03T17:36:41;4.97;;;1.88;;
16977;SDS011;8605;52.548;4.918;2023-04-03T17:41:44;3.55;;;1.92;;
16977;SDS011;8605;52.548;4.918;2023-04-03T17:46:49;4.75;;;2.00;;
16977;SDS011;8605;52.548;4.918;2023-04-03T17:51:53;4.80;;;2.20;;
16977;SDS011;8605;52.548;4.918;2023-04-03T17:56:56;6.95;;;2.70;;
16977;SDS011;8605;52.548;4.918;2023-04-03T18:01:59;5.60;;;2.47;;
16977;SDS011;8605;52.548;4.918;2023-04-03T18:07:03;4.72;;;2.20;;
16977;SDS011;8605;52.548;4.918;2023-04-03T18:12:10;6.60;;;2.57;;
16977;SDS011;8605;52.548;4.918;2023-04-03T18:17:12;6.13;;;2.23;;
16977;SDS011;8605;52.548;4.918;2023-04-03T18:22:39;6.13;;;2.20;;
16977;SDS011;8605;52.548;4.918;2023-04-03T18:27:42;3.90;;;2.55;;
16977;SDS011;8605;52.548;4.918;2023-04-03T18:32:46;8.25;;;2.45;;
16977;SDS011;8605;52.548;4.918;2023-04-03T18:37:50;4.30;;;2.58;;
16977;SDS011;8605;52.548;4.918;2023-04-03T18:42:53;4.07;;;2.28;;
16977;SDS011;8605;52.548;4.918;2023-04-03T18:47:56;5.53;;;2.65;;
16977;SDS011;8605;52.548;4.918;2023-04-03T18:53:00;6.53;;;2.83;;
16977;SDS011;8605;52.548;4.918;2023-04-03T18:58:03;6.70;;;2.85;;
16977;SDS011;8605;52.548;4.918;2023-04-03T19:03:06;11.68;;;2.80;;
16977;SDS011;8605;52.548;4.918;2023-04-03T19:08:12;4.78;;;2.72;;
16977;SDS011;8605;52.548;4.918;2023-04-03T19:13:15;4.63;;;2.70;;
16977;SDS011;8605;52.548;4.918;2023-04-03T19:18:18;4.07;;;2.25;;
16977;SDS011;8605;52.548;4.918;2023-04-03T19:23:23;6.65;;;2.72;;
16977;SDS011;8605;52.548;4.918;2023-04-03T19:28:26;7.13;;;2.90;;
16977;SDS011;8605;52.548;4.918;2023-04-03T19:33:29;5.07;;;2.58;;
16977;SDS011;8605;52.548;4.918;2023-04-03T19:38:33;6.53;;;3.05;;
16977;SDS011;8605;52.548;4.918;2023-04-03T19:43:36;6.30;;;2.90;;
16977;SDS011;8605;52.548;4.918;2023-04-03T19:48:39;5.40;;;2.35;;
16977;SDS011;8605;52.548;4.918;2023-04-03T19:53:44;9.27;;;2.50;;
16977;SDS011;8605;52.548;4.918;2023-04-03T19:58:47;6.57;;;2.25;;
16977;SDS011;8605;52.548;4.918;2023-04-03T20:03:55;6.68;;;2.88;;
16977;SDS011;8605;52.548;4.918;2023-04-03T20:09:00;6.03;;;2.60;;
16977;SDS011;8605;52.548;4.918;2023-04-03T20:14:03;6.30;;;2.78;;
16977;SDS011;8605;52.548;4.918;2023-04-03T20:19:06;3.17;;;2.17;;
16977;SDS011;8605;52.548;4.918;2023-04-03T20:24:11;5.38;;;2.85;;
16977;SDS011;8605;52.548;4.918;2023-04-03T20:29:16;7.97;;;3.10;;
16977;SDS011;8605;52.548;4.918;2023-04-03T20:34:19;9.82;;;3.10;;
16977;SDS011;8605;52.548;4.918;2023-04-03T20:39:24;9.75;;;3.30;;
16977;SDS011;8605;52.548;4.918;2023-04-03T20:44:26;8.20;;;3.80;;
16977;SDS011;8605;52.548;4.918;2023-04-03T20:49:29;8.45;;;3.85;;
16977;SDS011;8605;52.548;4.918;2023-04-03T20:54:34;6.30;;;3.50;;
16977;SDS011;8605;52.548;4.918;2023-04-03T20:59:37;8.02;;;3.38;;
16977;SDS011;8605;52.548;4.918;2023-04-03T21:04:42;7.25;;;2.92;;
16977;SDS011;8605;52.548;4.918;2023-04-03T21:20:54;5.47;;;2.58;;
16977;SDS011;8605;52.548;4.918;2023-04-03T21:25:57;5.72;;;2.35;;
16977;SDS011;8605;52.548;4.918;2023-04-03T21:31:01;4.97;;;2.10;;
16977;SDS011;8605;52.548;4.918;2023-04-03T21:36:05;6.13;;;2.13;;
16977;SDS011;8605;52.548;4.918;2023-04-03T21:41:09;4.03;;;1.83;;
16977;SDS011;8605;52.548;4.918;2023-04-03T21:46:12;3.67;;;1.80;;
16977;SDS011;8605;52.548;4.918;2023-04-03T21:51:16;5.38;;;2.00;;
16977;SDS011;8605;52.548;4.918;2023-04-03T21:56:19;5.23;;;2.40;;
16977;SDS011;8605;52.548;4.918;2023-04-03T22:01:23;4.30;;;2.30;;
16977;SDS011;8605;52.548;4.918;2023-04-03T22:06:27;5.47;;;2.92;;
16977;SDS011;8605;52.548;4.918;2023-04-03T22:11:30;8.05;;;2.95;;
16977;SDS011;8605;52.548;4.918;2023-04-03T22:16:33;5.50;;;2.30;;
16977;SDS011;8605;52.548;4.918;2023-04-03T22:21:38;5.47;;;2.60;;
16977;SDS011;8605;52.548;4.918;2023-04-03T22:26:41;6.28;;;2.65;;
16977;SDS011;8605;52.548;4.918;2023-04-03T22:31:45;3.80;;;2.05;;
16977;SDS011;8605;52.548;4.918;2023-04-03T22:36:49;5.93;;;2.42;;
16977;SDS011;8605;52.548;4.918;2023-04-03T22:41:53;6.72;;;2.20;;
16977;SDS011;8605;52.548;4.918;2023-04-03T22:46:57;8.35;;;2.50;;
16977;SDS011;8605;52.548;4.918;2023-04-03T22:52:01;4.77;;;2.70;;
16977;SDS011;8605;52.548;4.918;2023-04-03T22:57:04;7.10;;;2.85;;
16977;SDS011;8605;52.548;4.918;2023-04-03T23:02:07;11.63;;;3.22;;
16977;SDS011;8605;52.548;4.918;2023-04-03T23:07:11;10.93;;;3.40;;
16977;SDS011;8605;52.548;4.918;2023-04-03T23:12:14;10.05;;;3.17;;
16977;SDS011;8605;52.548;4.918;2023-04-03T23:17:17;9.93;;;3.40;;
16977;SDS011;8605;52.548;4.918;2023-04-03T23:22:21;6.27;;;3.30;;
16977;SDS011;8605;52.548;4.918;2023-04-03T23:27:24;7.73;;;3.10;;
16977;SDS011;8605;52.548;4.918;2023-04-03T23:32:27;11.33;;;3.53;;
16977;SDS011;8605;52.548;4.918;2023-04-03T23:37:32;8.57;;;3.67;;
16977;SDS011;8605;52.548;4.918;2023-04-03T23:42:34;5.57;;;3.40;;
16977;SDS011;8605;52.548;4.918;2023-04-03T23:47:37;6.78;;;3.63;;
16977;SDS011;8605;52.548;4.918;2023-04-03T23:52:41;7.03;;;4.03;;
16977;SDS011;8605;52.548;4.918;2023-04-03T23:57:44;13.90;;;4.63;;
